Peardale, California
Current Conditions -  °F | °C
As of 12:20 PM on Monday 24 Nov 2014 (Local Time) from KGOO Reporting Station
Clear Clear  
Wind Chill: 59°   Ceiling: Unl
Heat Index: 59°   Visibility: 10mi
Dew Point: 23°   Wind: 5mph
Humidity: 25%   Direction: 280°W
Pressure: 30.36"   Gusts: NA
Location:  39.2183°N, 120.924°W
Report Text: KGOO 242020Z AUTO 28004KT 10SM CLR 15/M05 A3036 RMK AO1
Loading
Personal Weather Stations






























Interactive Weather Map New forecast layout! Learn more

10-Day Weather Forecast

Advertisements
Track Severe Weather on mobile